CheckWX is a tool to help pilots better visualize weather data.  It is not intended as a substitute for an official pre-flight weather briefing.

09:53:42 UTC

KLAW METAR
Lawton-Fort Sill Regional Airport
Lawton, Oklahoma, USA
Current

1 hour ago

KLAW 180853Z AUTO 11006KT 10SM CLR 09/06 A2985 RMK AO2 SLP103 T00890056 58009
Observed
Oct-18 @ 08:53 UTC
Wind
  • 110° at 6 KTS
Visibility
10 SM
Flight Rules
VFR
Cloud Levels
  • Clear skies
Temperature
C / 48°F
Dewpoint
C / 43°F
Humidity
82%
Altimeter
29.85" Hg
Pressure
1010.82 hPa
Previous

2 hours ago

KLAW 180753Z AUTO 11004KT 10SM CLR 09/05 A2987 RMK AO2 SLP109 T00890050
Observed
Oct-18 @ 07:53 UTC
Wind
  • 110° at 4 KTS
Visibility
10 SM
Flight Rules
VFR
Cloud Levels
  • Clear skies
Temperature
C / 48°F
Dewpoint
C / 41°F
Humidity
76%
Altimeter
29.87" Hg
Pressure
1011.52 hPa
Previous

3 hours ago

KLAW 180653Z AUTO 00000KT 10SM CLR 09/05 A2988 RMK AO2 SLP112 T00890050
Observed
Oct-18 @ 06:53 UTC
Visibility
10 SM
Flight Rules
VFR
Cloud Levels
  • Clear skies
Temperature
C / 48°F
Dewpoint
C / 41°F
Humidity
76%
Altimeter
29.88" Hg
Pressure
1011.82 hPa